Terminal Aerodrome Forecast
Issued by NWS

Home | Current Version | Previous Version | Text Only | Print | Product List | Glossary On
Versions: 1 2 3 4 5 6 7 8 9 10 11 12 13 14 15 16 17 18
000
FTUS43 KBIS 282029 AAB
TAFJMS
TAF AMD
KJMS 282029Z 2820/2918 04003KT P6SM SKC
     FM290000 09004KT P6SM SKC
      TEMPO 2909/2913 3SM BR
     FM291700 16008KT P6SM SKC=

USA.gov is the U.S. government's official web portal to all federal, state and local government web resources and services.